sensor_id;sensor_type;location;lat;lon;timestamp;P1;durP1;ratioP1;P2;durP2;ratioP2
73776;SDS011;62088;50.240;2.696;2022-07-23T00:00:18;15.07;;;11.10;;
73776;SDS011;62088;50.240;2.696;2022-07-23T00:02:46;18.35;;;12.63;;
73776;SDS011;62088;50.240;2.696;2022-07-23T00:05:13;20.48;;;13.00;;
73776;SDS011;62088;50.240;2.696;2022-07-23T00:07:41;16.67;;;13.25;;
73776;SDS011;62088;50.240;2.696;2022-07-23T00:10:08;23.42;;;12.93;;
73776;SDS011;62088;50.240;2.696;2022-07-23T00:12:35;19.48;;;11.73;;
73776;SDS011;62088;50.240;2.696;2022-07-23T00:15:15;17.25;;;13.52;;
73776;SDS011;62088;50.240;2.696;2022-07-23T00:17:42;15.73;;;11.10;;
73776;SDS011;62088;50.240;2.696;2022-07-23T00:20:09;17.88;;;12.50;;
73776;SDS011;62088;50.240;2.696;2022-07-23T00:22:37;16.05;;;11.30;;
73776;SDS011;62088;50.240;2.696;2022-07-23T00:25:22;17.13;;;11.20;;
73776;SDS011;62088;50.240;2.696;2022-07-23T00:30:22;19.95;;;12.32;;
73776;SDS011;62088;50.240;2.696;2022-07-23T00:32:51;19.13;;;11.07;;
73776;SDS011;62088;50.240;2.696;2022-07-23T00:35:23;14.35;;;8.85;;
73776;SDS011;62088;50.240;2.696;2022-07-23T00:37:51;16.98;;;8.98;;
73776;SDS011;62088;50.240;2.696;2022-07-23T00:40:19;16.73;;;9.00;;
73776;SDS011;62088;50.240;2.696;2022-07-23T00:42:46;13.35;;;8.23;;
73776;SDS011;62088;50.240;2.696;2022-07-23T00:45:13;17.10;;;9.25;;
73776;SDS011;62088;50.240;2.696;2022-07-23T00:47:40;20.27;;;11.43;;
73776;SDS011;62088;50.240;2.696;2022-07-23T00:50:08;20.45;;;11.73;;
73776;SDS011;62088;50.240;2.696;2022-07-23T00:52:36;17.17;;;11.98;;
73776;SDS011;62088;50.240;2.696;2022-07-23T00:55:04;21.60;;;11.20;;
73776;SDS011;62088;50.240;2.696;2022-07-23T00:57:32;22.15;;;12.30;;
73776;SDS011;62088;50.240;2.696;2022-07-23T01:00:00;20.13;;;12.25;;
73776;SDS011;62088;50.240;2.696;2022-07-23T01:02:27;18.25;;;11.70;;
73776;SDS011;62088;50.240;2.696;2022-07-23T01:04:54;16.27;;;12.63;;
73776;SDS011;62088;50.240;2.696;2022-07-23T01:07:21;15.85;;;13.35;;
73776;SDS011;62088;50.240;2.696;2022-07-23T01:09:50;21.50;;;15.30;;
73776;SDS011;62088;50.240;2.696;2022-07-23T01:12:18;30.35;;;17.40;;
73776;SDS011;62088;50.240;2.696;2022-07-23T01:14:45;25.40;;;15.93;;
73776;SDS011;62088;50.240;2.696;2022-07-23T01:17:19;18.80;;;13.45;;
73776;SDS011;62088;50.240;2.696;2022-07-23T01:19:46;18.48;;;15.32;;
73776;SDS011;62088;50.240;2.696;2022-07-23T01:22:13;21.08;;;14.05;;
73776;SDS011;62088;50.240;2.696;2022-07-23T01:24:44;21.23;;;15.93;;
73776;SDS011;62088;50.240;2.696;2022-07-23T01:27:11;28.23;;;16.42;;
73776;SDS011;62088;50.240;2.696;2022-07-23T01:29:39;17.92;;;14.60;;
73776;SDS011;62088;50.240;2.696;2022-07-23T01:32:13;22.60;;;14.57;;
73776;SDS011;62088;50.240;2.696;2022-07-23T01:34:40;20.98;;;15.63;;
73776;SDS011;62088;50.240;2.696;2022-07-23T01:37:07;21.42;;;16.20;;
73776;SDS011;62088;50.240;2.696;2022-07-23T01:39:34;17.20;;;12.15;;
73776;SDS011;62088;50.240;2.696;2022-07-23T01:42:01;22.30;;;13.07;;
73776;SDS011;62088;50.240;2.696;2022-07-23T01:44:30;21.17;;;13.95;;
73776;SDS011;62088;50.240;2.696;2022-07-23T01:47:00;24.80;;;13.10;;
73776;SDS011;62088;50.240;2.696;2022-07-23T01:49:28;16.10;;;12.23;;
73776;SDS011;62088;50.240;2.696;2022-07-23T01:51:57;18.52;;;11.73;;
73776;SDS011;62088;50.240;2.696;2022-07-23T01:54:48;20.83;;;12.52;;
73776;SDS011;62088;50.240;2.696;2022-07-23T01:57:16;17.83;;;14.00;;
73776;SDS011;62088;50.240;2.696;2022-07-23T01:59:44;19.63;;;15.70;;
73776;SDS011;62088;50.240;2.696;2022-07-23T02:02:11;23.25;;;15.18;;
73776;SDS011;62088;50.240;2.696;2022-07-23T02:04:38;25.25;;;15.13;;
73776;SDS011;62088;50.240;2.696;2022-07-23T02:07:05;20.13;;;12.77;;
73776;SDS011;62088;50.240;2.696;2022-07-23T02:09:33;19.25;;;11.73;;
73776;SDS011;62088;50.240;2.696;2022-07-23T02:12:01;26.30;;;14.48;;
73776;SDS011;62088;50.240;2.696;2022-07-23T02:14:29;20.58;;;14.18;;
73776;SDS011;62088;50.240;2.696;2022-07-23T02:16:57;16.10;;;11.50;;
73776;SDS011;62088;50.240;2.696;2022-07-23T02:19:25;18.85;;;14.77;;
73776;SDS011;62088;50.240;2.696;2022-07-23T02:21:52;27.10;;;15.95;;
73776;SDS011;62088;50.240;2.696;2022-07-23T02:24:20;19.63;;;14.85;;
73776;SDS011;62088;50.240;2.696;2022-07-23T02:26:47;19.70;;;14.43;;
73776;SDS011;62088;50.240;2.696;2022-07-23T02:29:14;26.48;;;15.25;;
73776;SDS011;62088;50.240;2.696;2022-07-23T02:31:41;29.63;;;16.40;;
73776;SDS011;62088;50.240;2.696;2022-07-23T02:34:09;18.85;;;13.43;;
73776;SDS011;62088;50.240;2.696;2022-07-23T02:36:38;19.40;;;12.40;;
73776;SDS011;62088;50.240;2.696;2022-07-23T02:39:07;26.02;;;13.02;;
73776;SDS011;62088;50.240;2.696;2022-07-23T02:41:35;25.35;;;13.00;;
73776;SDS011;62088;50.240;2.696;2022-07-23T02:44:02;20.75;;;11.32;;
73776;SDS011;62088;50.240;2.696;2022-07-23T02:46:30;24.05;;;11.10;;
73776;SDS011;62088;50.240;2.696;2022-07-23T02:48:58;18.00;;;11.82;;
73776;SDS011;62088;50.240;2.696;2022-07-23T02:51:25;27.48;;;14.00;;
73776;SDS011;62088;50.240;2.696;2022-07-23T02:53:57;21.17;;;12.07;;
73776;SDS011;62088;50.240;2.696;2022-07-23T02:56:24;24.52;;;14.57;;
73776;SDS011;62088;50.240;2.696;2022-07-23T02:58:51;20.58;;;13.98;;
73776;SDS011;62088;50.240;2.696;2022-07-23T03:01:20;34.38;;;13.32;;
73776;SDS011;62088;50.240;2.696;2022-07-23T03:03:47;25.88;;;12.93;;
73776;SDS011;62088;50.240;2.696;2022-07-23T03:06:14;20.38;;;15.55;;
73776;SDS011;62088;50.240;2.696;2022-07-23T03:08:41;20.10;;;13.55;;
73776;SDS011;62088;50.240;2.696;2022-07-23T03:11:09;20.90;;;15.40;;
73776;SDS011;62088;50.240;2.696;2022-07-23T03:13:39;22.85;;;11.85;;
73776;SDS011;62088;50.240;2.696;2022-07-23T03:16:06;24.88;;;11.93;;
73776;SDS011;62088;50.240;2.696;2022-07-23T03:18:35;17.48;;;10.55;;
73776;SDS011;62088;50.240;2.696;2022-07-23T03:21:07;25.75;;;13.15;;
73776;SDS011;62088;50.240;2.696;2022-07-23T03:23:36;25.08;;;11.38;;
73776;SDS011;62088;50.240;2.696;2022-07-23T03:26:03;18.60;;;11.00;;
73776;SDS011;62088;50.240;2.696;2022-07-23T03:28:30;17.00;;;10.77;;
73776;SDS011;62088;50.240;2.696;2022-07-23T03:30:57;20.95;;;11.48;;
73776;SDS011;62088;50.240;2.696;2022-07-23T03:33:24;16.02;;;10.68;;
73776;SDS011;62088;50.240;2.696;2022-07-23T03:35:52;21.38;;;14.07;;
73776;SDS011;62088;50.240;2.696;2022-07-23T03:38:24;24.90;;;11.55;;
73776;SDS011;62088;50.240;2.696;2022-07-23T03:40:52;22.52;;;11.88;;
73776;SDS011;62088;50.240;2.696;2022-07-23T03:43:19;27.67;;;12.57;;
73776;SDS011;62088;50.240;2.696;2022-07-23T03:45:46;22.20;;;12.32;;
73776;SDS011;62088;50.240;2.696;2022-07-23T03:48:13;26.60;;;12.02;;
73776;SDS011;62088;50.240;2.696;2022-07-23T03:50:43;21.50;;;11.90;;
73776;SDS011;62088;50.240;2.696;2022-07-23T03:53:10;21.05;;;11.93;;
73776;SDS011;62088;50.240;2.696;2022-07-23T03:55:37;19.73;;;11.23;;
73776;SDS011;62088;50.240;2.696;2022-07-23T03:58:03;25.52;;;14.80;;
73776;SDS011;62088;50.240;2.696;2022-07-23T04:00:31;21.77;;;11.52;;
73776;SDS011;62088;50.240;2.696;2022-07-23T04:02:58;25.02;;;12.90;;
73776;SDS011;62088;50.240;2.696;2022-07-23T04:05:26;29.95;;;14.32;;
73776;SDS011;62088;50.240;2.696;2022-07-23T04:08:02;33.40;;;13.98;;
73776;SDS011;62088;50.240;2.696;2022-07-23T04:10:30;24.55;;;13.98;;
73776;SDS011;62088;50.240;2.696;2022-07-23T04:12:57;20.27;;;11.70;;
73776;SDS011;62088;50.240;2.696;2022-07-23T04:15:24;19.58;;;11.88;;
73776;SDS011;62088;50.240;2.696;2022-07-23T04:17:51;30.27;;;15.15;;
73776;SDS011;62088;50.240;2.696;2022-07-23T04:20:19;22.60;;;10.93;;
73776;SDS011;62088;50.240;2.696;2022-07-23T04:22:53;31.40;;;13.32;;
73776;SDS011;62088;50.240;2.696;2022-07-23T04:25:21;29.45;;;16.02;;
73776;SDS011;62088;50.240;2.696;2022-07-23T04:27:48;32.22;;;15.95;;
73776;SDS011;62088;50.240;2.696;2022-07-23T04:30:16;23.48;;;15.48;;
73776;SDS011;62088;50.240;2.696;2022-07-23T04:32:43;20.40;;;12.52;;
73776;SDS011;62088;50.240;2.696;2022-07-23T04:35:19;33.20;;;16.30;;
73776;SDS011;62088;50.240;2.696;2022-07-23T04:37:49;27.63;;;15.77;;
73776;SDS011;62088;50.240;2.696;2022-07-23T04:40:17;20.38;;;12.10;;
73776;SDS011;62088;50.240;2.696;2022-07-23T04:42:44;32.42;;;15.70;;
73776;SDS011;62088;50.240;2.696;2022-07-23T04:45:11;20.55;;;12.55;;
73776;SDS011;62088;50.240;2.696;2022-07-23T04:47:40;27.23;;;14.15;;
73776;SDS011;62088;50.240;2.696;2022-07-23T04:50:08;20.17;;;12.75;;
73776;SDS011;62088;50.240;2.696;2022-07-23T04:52:38;18.60;;;11.38;;
73776;SDS011;62088;50.240;2.696;2022-07-23T04:55:05;22.13;;;12.77;;
73776;SDS011;62088;50.240;2.696;2022-07-23T04:57:33;28.45;;;12.23;;
73776;SDS011;62088;50.240;2.696;2022-07-23T05:00:00;33.63;;;15.93;;
73776;SDS011;62088;50.240;2.696;2022-07-23T05:02:27;21.02;;;12.80;;
73776;SDS011;62088;50.240;2.696;2022-07-23T05:04:54;23.67;;;14.43;;
73776;SDS011;62088;50.240;2.696;2022-07-23T05:07:21;23.60;;;14.88;;
73776;SDS011;62088;50.240;2.696;2022-07-23T05:09:49;22.08;;;13.02;;
73776;SDS011;62088;50.240;2.696;2022-07-23T05:12:16;24.25;;;13.85;;
73776;SDS011;62088;50.240;2.696;2022-07-23T05:14:43;32.53;;;16.60;;
73776;SDS011;62088;50.240;2.696;2022-07-23T05:17:10;21.83;;;15.00;;
73776;SDS011;62088;50.240;2.696;2022-07-23T05:19:38;30.13;;;18.95;;
73776;SDS011;62088;50.240;2.696;2022-07-23T05:22:05;22.63;;;16.73;;
73776;SDS011;62088;50.240;2.696;2022-07-23T05:24:32;30.42;;;15.75;;
73776;SDS011;62088;50.240;2.696;2022-07-23T05:26:59;28.38;;;17.52;;
73776;SDS011;62088;50.240;2.696;2022-07-23T05:29:26;32.72;;;18.70;;
73776;SDS011;62088;50.240;2.696;2022-07-23T05:31:53;21.05;;;15.95;;
73776;SDS011;62088;50.240;2.696;2022-07-23T05:34:21;32.47;;;18.77;;
73776;SDS011;62088;50.240;2.696;2022-07-23T05:36:49;19.92;;;14.85;;
73776;SDS011;62088;50.240;2.696;2022-07-23T05:39:16;22.02;;;16.58;;
73776;SDS011;62088;50.240;2.696;2022-07-23T05:41:43;24.75;;;18.90;;
73776;SDS011;62088;50.240;2.696;2022-07-23T05:44:10;34.45;;;21.83;;
73776;SDS011;62088;50.240;2.696;2022-07-23T05:46:39;29.30;;;18.88;;
73776;SDS011;62088;50.240;2.696;2022-07-23T05:49:09;33.78;;;19.63;;
73776;SDS011;62088;50.240;2.696;2022-07-23T05:51:53;30.35;;;16.25;;
73776;SDS011;62088;50.240;2.696;2022-07-23T05:54:31;33.80;;;21.58;;
73776;SDS011;62088;50.240;2.696;2022-07-23T05:57:00;26.40;;;18.55;;
73776;SDS011;62088;50.240;2.696;2022-07-23T05:59:27;25.48;;;17.40;;
73776;SDS011;62088;50.240;2.696;2022-07-23T06:01:55;22.80;;;15.98;;
73776;SDS011;62088;50.240;2.696;2022-07-23T06:04:22;22.17;;;14.10;;
73776;SDS011;62088;50.240;2.696;2022-07-23T06:07:06;34.80;;;20.75;;
73776;SDS011;62088;50.240;2.696;2022-07-23T06:09:34;28.42;;;19.92;;
73776;SDS011;62088;50.240;2.696;2022-07-23T06:12:01;33.55;;;22.25;;
73776;SDS011;62088;50.240;2.696;2022-07-23T06:14:29;32.50;;;22.45;;
73776;SDS011;62088;50.240;2.696;2022-07-23T06:16:57;38.20;;;25.58;;
73776;SDS011;62088;50.240;2.696;2022-07-23T06:19:26;32.08;;;21.33;;
73776;SDS011;62088;50.240;2.696;2022-07-23T06:21:53;31.95;;;23.38;;
73776;SDS011;62088;50.240;2.696;2022-07-23T06:24:20;34.45;;;25.00;;
73776;SDS011;62088;50.240;2.696;2022-07-23T06:26:48;35.22;;;24.13;;
73776;SDS011;62088;50.240;2.696;2022-07-23T06:29:15;33.67;;;24.98;;
73776;SDS011;62088;50.240;2.696;2022-07-23T06:31:42;31.23;;;23.17;;
73776;SDS011;62088;50.240;2.696;2022-07-23T06:34:13;37.40;;;25.92;;
73776;SDS011;62088;50.240;2.696;2022-07-23T06:36:39;33.03;;;22.58;;
73776;SDS011;62088;50.240;2.696;2022-07-23T06:39:08;29.40;;;19.92;;
73776;SDS011;62088;50.240;2.696;2022-07-23T06:41:35;33.28;;;23.15;;
73776;SDS011;62088;50.240;2.696;2022-07-23T06:44:03;38.08;;;27.15;;
73776;SDS011;62088;50.240;2.696;2022-07-23T06:46:33;33.00;;;24.33;;
73776;SDS011;62088;50.240;2.696;2022-07-23T06:49:01;31.65;;;22.88;;
73776;SDS011;62088;50.240;2.696;2022-07-23T06:51:31;30.35;;;22.20;;
73776;SDS011;62088;50.240;2.696;2022-07-23T06:54:00;32.22;;;23.48;;
73776;SDS011;62088;50.240;2.696;2022-07-23T06:56:27;30.27;;;22.50;;
73776;SDS011;62088;50.240;2.696;2022-07-23T06:58:54;41.42;;;26.30;;
73776;SDS011;62088;50.240;2.696;2022-07-23T07:01:21;40.20;;;28.40;;
73776;SDS011;62088;50.240;2.696;2022-07-23T07:03:48;33.42;;;22.27;;
73776;SDS011;62088;50.240;2.696;2022-07-23T07:06:15;37.55;;;26.13;;
73776;SDS011;62088;50.240;2.696;2022-07-23T07:08:42;36.55;;;25.42;;
73776;SDS011;62088;50.240;2.696;2022-07-23T07:11:10;36.70;;;27.25;;
73776;SDS011;62088;50.240;2.696;2022-07-23T07:13:37;37.55;;;26.25;;
73776;SDS011;62088;50.240;2.696;2022-07-23T07:16:04;41.80;;;26.98;;
73776;SDS011;62088;50.240;2.696;2022-07-23T07:18:32;41.85;;;27.50;;
73776;SDS011;62088;50.240;2.696;2022-07-23T07:20:59;38.28;;;26.15;;
73776;SDS011;62088;50.240;2.696;2022-07-23T07:23:26;42.42;;;26.00;;
73776;SDS011;62088;50.240;2.696;2022-07-23T07:25:53;38.38;;;27.70;;
73776;SDS011;62088;50.240;2.696;2022-07-23T07:28:20;39.03;;;27.02;;
73776;SDS011;62088;50.240;2.696;2022-07-23T07:30:47;46.22;;;27.60;;
73776;SDS011;62088;50.240;2.696;2022-07-23T07:33:14;40.40;;;28.02;;
73776;SDS011;62088;50.240;2.696;2022-07-23T07:35:41;43.25;;;29.25;;
73776;SDS011;62088;50.240;2.696;2022-07-23T07:38:08;43.25;;;29.65;;
73776;SDS011;62088;50.240;2.696;2022-07-23T07:40:35;40.83;;;27.23;;
73776;SDS011;62088;50.240;2.696;2022-07-23T07:43:02;37.88;;;27.02;;
73776;SDS011;62088;50.240;2.696;2022-07-23T07:45:30;31.90;;;23.40;;
73776;SDS011;62088;50.240;2.696;2022-07-23T07:47:57;38.00;;;26.73;;
73776;SDS011;62088;50.240;2.696;2022-07-23T07:50:24;35.85;;;26.83;;
73776;SDS011;62088;50.240;2.696;2022-07-23T07:52:51;43.65;;;23.60;;
73776;SDS011;62088;50.240;2.696;2022-07-23T07:55:19;36.95;;;24.58;;
73776;SDS011;62088;50.240;2.696;2022-07-23T07:57:46;40.60;;;26.63;;
73776;SDS011;62088;50.240;2.696;2022-07-23T08:00:15;35.53;;;23.85;;
73776;SDS011;62088;50.240;2.696;2022-07-23T08:02:50;35.05;;;25.75;;
73776;SDS011;62088;50.240;2.696;2022-07-23T08:05:22;32.28;;;22.10;;
73776;SDS011;62088;50.240;2.696;2022-07-23T08:07:54;31.85;;;22.13;;
73776;SDS011;62088;50.240;2.696;2022-07-23T08:10:23;32.05;;;22.00;;
73776;SDS011;62088;50.240;2.696;2022-07-23T08:12:52;38.92;;;23.13;;
73776;SDS011;62088;50.240;2.696;2022-07-23T08:15:22;31.30;;;22.40;;
73776;SDS011;62088;50.240;2.696;2022-07-23T08:17:49;33.97;;;22.15;;
73776;SDS011;62088;50.240;2.696;2022-07-23T08:20:17;32.05;;;22.02;;
73776;SDS011;62088;50.240;2.696;2022-07-23T08:22:47;39.45;;;22.75;;
73776;SDS011;62088;50.240;2.696;2022-07-23T08:25:20;43.88;;;22.05;;
73776;SDS011;62088;50.240;2.696;2022-07-23T08:27:49;30.33;;;20.60;;
73776;SDS011;62088;50.240;2.696;2022-07-23T08:30:17;28.05;;;19.02;;
73776;SDS011;62088;50.240;2.696;2022-07-23T08:32:49;29.17;;;19.90;;
73776;SDS011;62088;50.240;2.696;2022-07-23T08:35:17;24.65;;;18.02;;
73776;SDS011;62088;50.240;2.696;2022-07-23T08:37:49;24.58;;;16.75;;
73776;SDS011;62088;50.240;2.696;2022-07-23T08:40:16;31.58;;;18.92;;
73776;SDS011;62088;50.240;2.696;2022-07-23T08:42:44;28.92;;;17.55;;
73776;SDS011;62088;50.240;2.696;2022-07-23T08:45:19;22.02;;;16.05;;
73776;SDS011;62088;50.240;2.696;2022-07-23T08:47:52;25.77;;;16.63;;
73776;SDS011;62088;50.240;2.696;2022-07-23T08:50:29;20.13;;;13.68;;
73776;SDS011;62088;50.240;2.696;2022-07-23T08:52:56;21.02;;;12.02;;
73776;SDS011;62088;50.240;2.696;2022-07-23T08:55:25;16.88;;;9.80;;
73776;SDS011;62088;50.240;2.696;2022-07-23T08:57:52;14.52;;;10.32;;
73776;SDS011;62088;50.240;2.696;2022-07-23T09:00:20;14.70;;;9.40;;
73776;SDS011;62088;50.240;2.696;2022-07-23T09:02:48;17.60;;;10.27;;
73776;SDS011;62088;50.240;2.696;2022-07-23T09:05:17;19.45;;;10.88;;
73776;SDS011;62088;50.240;2.696;2022-07-23T09:10:42;14.75;;;7.80;;
73776;SDS011;62088;50.240;2.696;2022-07-23T09:13:22;13.65;;;8.00;;
73776;SDS011;62088;50.240;2.696;2022-07-23T09:15:52;15.48;;;9.00;;
73776;SDS011;62088;50.240;2.696;2022-07-23T09:18:34;16.65;;;9.85;;
73776;SDS011;62088;50.240;2.696;2022-07-23T09:21:09;19.38;;;9.18;;
73776;SDS011;62088;50.240;2.696;2022-07-23T09:24:03;15.40;;;8.40;;
73776;SDS011;62088;50.240;2.696;2022-07-23T09:26:36;16.73;;;9.05;;
73776;SDS011;62088;50.240;2.696;2022-07-23T09:29:18;13.70;;;8.98;;
73776;SDS011;62088;50.240;2.696;2022-07-23T09:34:28;18.70;;;10.73;;
73776;SDS011;62088;50.240;2.696;2022-07-23T09:37:09;16.02;;;9.13;;
73776;SDS011;62088;50.240;2.696;2022-07-23T09:39:44;16.10;;;9.57;;
73776;SDS011;62088;50.240;2.696;2022-07-23T09:42:13;10.05;;;7.43;;
73776;SDS011;62088;50.240;2.696;2022-07-23T09:44:55;12.27;;;8.32;;
73776;SDS011;62088;50.240;2.696;2022-07-23T09:47:24;15.30;;;8.45;;
73776;SDS011;62088;50.240;2.696;2022-07-23T09:50:06;14.20;;;7.70;;
73776;SDS011;62088;50.240;2.696;2022-07-23T09:52:37;15.00;;;9.65;;
73776;SDS011;62088;50.240;2.696;2022-07-23T09:55:10;13.68;;;7.63;;
73776;SDS011;62088;50.240;2.696;2022-07-23T09:57:37;14.82;;;7.72;;
73776;SDS011;62088;50.240;2.696;2022-07-23T10:00:07;13.73;;;7.15;;
73776;SDS011;62088;50.240;2.696;2022-07-23T10:02:37;10.73;;;6.60;;
73776;SDS011;62088;50.240;2.696;2022-07-23T10:05:24;15.13;;;6.95;;
73776;SDS011;62088;50.240;2.696;2022-07-23T10:08:16;9.90;;;6.60;;
73776;SDS011;62088;50.240;2.696;2022-07-23T10:11:03;16.42;;;7.22;;
73776;SDS011;62088;50.240;2.696;2022-07-23T10:13:45;8.85;;;6.50;;
73776;SDS011;62088;50.240;2.696;2022-07-23T10:16:36;14.90;;;6.85;;
73776;SDS011;62088;50.240;2.696;2022-07-23T10:19:05;17.63;;;7.28;;
73776;SDS011;62088;50.240;2.696;2022-07-23T10:21:54;12.43;;;7.75;;
73776;SDS011;62088;50.240;2.696;2022-07-23T10:38:21;13.05;;;6.75;;
73776;SDS011;62088;50.240;2.696;2022-07-23T10:40:59;11.82;;;6.70;;
73776;SDS011;62088;50.240;2.696;2022-07-23T10:43:28;16.40;;;7.88;;
73776;SDS011;62088;50.240;2.696;2022-07-23T10:45:56;8.65;;;5.88;;
73776;SDS011;62088;50.240;2.696;2022-07-23T10:54:45;10.55;;;5.45;;
73776;SDS011;62088;50.240;2.696;2022-07-23T10:57:19;11.80;;;6.25;;
73776;SDS011;62088;50.240;2.696;2022-07-23T11:02:41;9.93;;;5.15;;
73776;SDS011;62088;50.240;2.696;2022-07-23T11:05:10;8.32;;;5.00;;
73776;SDS011;62088;50.240;2.696;2022-07-23T11:13:25;12.27;;;5.20;;
73776;SDS011;62088;50.240;2.696;2022-07-23T11:26:52;7.72;;;4.50;;
73776;SDS011;62088;50.240;2.696;2022-07-23T11:37:00;12.57;;;5.00;;
73776;SDS011;62088;50.240;2.696;2022-07-23T11:39:29;13.05;;;4.35;;
73776;SDS011;62088;50.240;2.696;2022-07-23T11:41:58;8.52;;;4.30;;
73776;SDS011;62088;50.240;2.696;2022-07-23T11:44:29;8.05;;;4.50;;
73776;SDS011;62088;50.240;2.696;2022-07-23T11:47:02;9.15;;;4.40;;
73776;SDS011;62088;50.240;2.696;2022-07-23T11:49:31;9.82;;;4.55;;
73776;SDS011;62088;50.240;2.696;2022-07-23T11:52:05;10.07;;;4.78;;
73776;SDS011;62088;50.240;2.696;2022-07-23T11:54:49;9.05;;;4.43;;
73776;SDS011;62088;50.240;2.696;2022-07-23T11:57:23;10.88;;;4.20;;
73776;SDS011;62088;50.240;2.696;2022-07-23T11:59:53;10.15;;;4.55;;
73776;SDS011;62088;50.240;2.696;2022-07-23T12:02:24;10.05;;;4.60;;
73776;SDS011;62088;50.240;2.696;2022-07-23T12:04:52;7.45;;;4.47;;
73776;SDS011;62088;50.240;2.696;2022-07-23T12:07:24;6.68;;;3.95;;
73776;SDS011;62088;50.240;2.696;2022-07-23T12:09:51;9.25;;;3.70;;
73776;SDS011;62088;50.240;2.696;2022-07-23T12:12:18;7.47;;;4.60;;
73776;SDS011;62088;50.240;2.696;2022-07-23T12:17:20;7.68;;;4.28;;
73776;SDS011;62088;50.240;2.696;2022-07-23T12:19:53;7.40;;;4.13;;
73776;SDS011;62088;50.240;2.696;2022-07-23T12:22:21;8.52;;;4.28;;
73776;SDS011;62088;50.240;2.696;2022-07-23T12:24:53;8.93;;;4.22;;
73776;SDS011;62088;50.240;2.696;2022-07-23T12:27:21;12.85;;;4.95;;
73776;SDS011;62088;50.240;2.696;2022-07-23T12:29:49;9.48;;;4.22;;
73776;SDS011;62088;50.240;2.696;2022-07-23T12:32:18;6.68;;;3.67;;
73776;SDS011;62088;50.240;2.696;2022-07-23T12:35:05;8.30;;;4.47;;
73776;SDS011;62088;50.240;2.696;2022-07-23T12:37:40;12.23;;;4.40;;
73776;SDS011;62088;50.240;2.696;2022-07-23T12:40:18;8.73;;;4.20;;
73776;SDS011;62088;50.240;2.696;2022-07-23T12:42:54;9.52;;;4.85;;
73776;SDS011;62088;50.240;2.696;2022-07-23T12:45:43;8.68;;;3.88;;
73776;SDS011;62088;50.240;2.696;2022-07-23T12:48:25;7.57;;;4.35;;
73776;SDS011;62088;50.240;2.696;2022-07-23T12:51:00;9.27;;;4.32;;
73776;SDS011;62088;50.240;2.696;2022-07-23T12:53:38;11.02;;;4.60;;
73776;SDS011;62088;50.240;2.696;2022-07-23T12:56:10;9.93;;;4.53;;
73776;SDS011;62088;50.240;2.696;2022-07-23T12:58:45;6.63;;;4.20;;
73776;SDS011;62088;50.240;2.696;2022-07-23T13:03:59;7.97;;;4.57;;
73776;SDS011;62088;50.240;2.696;2022-07-23T13:06:28;8.90;;;5.07;;
73776;SDS011;62088;50.240;2.696;2022-07-23T13:08:57;8.88;;;4.25;;
73776;SDS011;62088;50.240;2.696;2022-07-23T13:11:27;9.35;;;4.68;;
73776;SDS011;62088;50.240;2.696;2022-07-23T13:13:56;12.27;;;4.95;;
73776;SDS011;62088;50.240;2.696;2022-07-23T13:16:24;6.75;;;4.13;;
73776;SDS011;62088;50.240;2.696;2022-07-23T13:18:53;6.85;;;4.47;;
73776;SDS011;62088;50.240;2.696;2022-07-23T13:21:24;7.80;;;4.50;;
73776;SDS011;62088;50.240;2.696;2022-07-23T13:23:52;6.80;;;4.90;;
73776;SDS011;62088;50.240;2.696;2022-07-23T13:26:20;7.03;;;4.20;;
73776;SDS011;62088;50.240;2.696;2022-07-23T13:28:48;6.00;;;4.30;;
73776;SDS011;62088;50.240;2.696;2022-07-23T13:31:17;8.77;;;4.75;;
73776;SDS011;62088;50.240;2.696;2022-07-23T13:33:44;8.05;;;4.47;;
73776;SDS011;62088;50.240;2.696;2022-07-23T13:36:13;9.35;;;5.35;;
73776;SDS011;62088;50.240;2.696;2022-07-23T13:38:40;9.70;;;4.30;;
73776;SDS011;62088;50.240;2.696;2022-07-23T13:41:08;6.43;;;4.00;;
73776;SDS011;62088;50.240;2.696;2022-07-23T13:43:38;9.10;;;4.80;;
73776;SDS011;62088;50.240;2.696;2022-07-23T13:46:06;8.48;;;4.38;;
73776;SDS011;62088;50.240;2.696;2022-07-23T13:48:33;8.30;;;4.35;;
73776;SDS011;62088;50.240;2.696;2022-07-23T13:51:00;7.82;;;4.38;;
73776;SDS011;62088;50.240;2.696;2022-07-23T13:53:27;9.30;;;4.22;;
73776;SDS011;62088;50.240;2.696;2022-07-23T13:55:55;8.93;;;4.72;;
73776;SDS011;62088;50.240;2.696;2022-07-23T13:58:23;11.60;;;4.72;;
73776;SDS011;62088;50.240;2.696;2022-07-23T14:00:52;8.27;;;4.47;;
73776;SDS011;62088;50.240;2.696;2022-07-23T14:03:20;9.10;;;4.28;;
73776;SDS011;62088;50.240;2.696;2022-07-23T14:05:53;6.07;;;4.32;;
73776;SDS011;62088;50.240;2.696;2022-07-23T14:08:22;6.78;;;4.32;;
73776;SDS011;62088;50.240;2.696;2022-07-23T14:10:49;7.85;;;4.60;;
73776;SDS011;62088;50.240;2.696;2022-07-23T14:13:16;11.50;;;4.65;;
73776;SDS011;62088;50.240;2.696;2022-07-23T14:15:47;9.50;;;5.05;;
73776;SDS011;62088;50.240;2.696;2022-07-23T14:18:15;8.60;;;5.20;;
73776;SDS011;62088;50.240;2.696;2022-07-23T14:20:43;7.47;;;5.00;;
73776;SDS011;62088;50.240;2.696;2022-07-23T14:23:10;9.63;;;5.00;;
73776;SDS011;62088;50.240;2.696;2022-07-23T14:25:39;13.35;;;5.00;;
73776;SDS011;62088;50.240;2.696;2022-07-23T14:28:06;9.05;;;5.18;;
73776;SDS011;62088;50.240;2.696;2022-07-23T14:30:34;16.40;;;5.50;;
73776;SDS011;62088;50.240;2.696;2022-07-23T14:33:01;9.75;;;5.03;;
73776;SDS011;62088;50.240;2.696;2022-07-23T14:35:28;10.65;;;5.60;;
73776;SDS011;62088;50.240;2.696;2022-07-23T14:37:55;14.05;;;5.50;;
73776;SDS011;62088;50.240;2.696;2022-07-23T14:40:23;15.00;;;5.20;;
73776;SDS011;62088;50.240;2.696;2022-07-23T14:42:50;10.63;;;5.40;;
73776;SDS011;62088;50.240;2.696;2022-07-23T14:45:17;11.10;;;5.30;;
73776;SDS011;62088;50.240;2.696;2022-07-23T14:47:44;9.45;;;5.28;;
73776;SDS011;62088;50.240;2.696;2022-07-23T14:50:13;9.73;;;6.00;;
73776;SDS011;62088;50.240;2.696;2022-07-23T14:52:41;8.70;;;4.55;;
73776;SDS011;62088;50.240;2.696;2022-07-23T14:55:08;10.30;;;5.18;;
73776;SDS011;62088;50.240;2.696;2022-07-23T14:57:35;10.30;;;5.70;;
73776;SDS011;62088;50.240;2.696;2022-07-23T15:00:05;10.23;;;6.28;;
73776;SDS011;62088;50.240;2.696;2022-07-23T15:02:34;16.73;;;6.25;;
73776;SDS011;62088;50.240;2.696;2022-07-23T15:05:02;25.00;;;5.78;;
73776;SDS011;62088;50.240;2.696;2022-07-23T15:07:50;8.98;;;4.95;;
73776;SDS011;62088;50.240;2.696;2022-07-23T15:10:17;8.27;;;5.28;;
73776;SDS011;62088;50.240;2.696;2022-07-23T15:12:48;10.82;;;5.45;;
73776;SDS011;62088;50.240;2.696;2022-07-23T15:15:15;8.60;;;5.63;;
73776;SDS011;62088;50.240;2.696;2022-07-23T15:17:44;9.80;;;5.40;;
73776;SDS011;62088;50.240;2.696;2022-07-23T15:20:11;21.83;;;6.05;;
73776;SDS011;62088;50.240;2.696;2022-07-23T15:22:44;16.50;;;6.10;;
73776;SDS011;62088;50.240;2.696;2022-07-23T15:25:14;24.30;;;6.10;;
73776;SDS011;62088;50.240;2.696;2022-07-23T15:27:41;12.25;;;5.97;;
73776;SDS011;62088;50.240;2.696;2022-07-23T15:30:08;21.27;;;6.43;;
73776;SDS011;62088;50.240;2.696;2022-07-23T15:32:36;10.95;;;6.45;;
73776;SDS011;62088;50.240;2.696;2022-07-23T15:35:04;17.23;;;5.80;;
73776;SDS011;62088;50.240;2.696;2022-07-23T15:37:34;8.30;;;5.30;;
73776;SDS011;62088;50.240;2.696;2022-07-23T15:40:02;11.93;;;5.68;;
73776;SDS011;62088;50.240;2.696;2022-07-23T15:42:39;10.82;;;5.82;;